createdAt,value
2023-11-20T00:00:19.249Z,82.53
2023-11-20T00:02:48.520Z,82.14
2023-11-20T00:05:16.416Z,82.16
2023-11-20T00:07:44.222Z,82.33
2023-11-20T00:10:12.209Z,82.42
2023-11-20T00:12:39.970Z,82.08
2023-11-20T00:15:09.577Z,82.10
2023-11-20T00:17:38.261Z,82.52
2023-11-20T00:20:08.633Z,82.05
2023-11-20T00:22:36.371Z,82.08
2023-11-20T00:25:04.463Z,82.14
2023-11-20T00:27:32.385Z,81.96
2023-11-20T00:30:00.178Z,82.43
2023-11-20T00:32:28.892Z,82.55
2023-11-20T00:34:56.656Z,82.51
2023-11-20T00:37:25.835Z,82.49
2023-11-20T00:39:53.735Z,82.55
2023-11-20T00:42:21.492Z,82.33
2023-11-20T00:44:49.272Z,82.42
2023-11-20T00:47:17.816Z,82.53
2023-11-20T00:49:45.870Z,82.32
2023-11-20T00:52:13.969Z,82.50
2023-11-20T00:54:43.097Z,82.58
2023-11-20T00:57:11.133Z,82.12
2023-11-20T00:59:38.904Z,82.49
2023-11-20T01:02:08.048Z,82.44
2023-11-20T01:04:36.391Z,82.60
2023-11-20T01:07:04.938Z,82.57
2023-11-20T01:09:32.692Z,82.52
2023-11-20T01:12:01.791Z,82.15
2023-11-20T01:14:29.551Z,82.55
2023-11-20T01:16:58.411Z,82.42
2023-11-20T01:19:26.248Z,82.32
2023-11-20T01:21:54.166Z,82.34
2023-11-20T01:24:21.957Z,82.43
2023-11-20T01:26:50.349Z,82.32
2023-11-20T01:29:19.472Z,82.32
2023-11-20T01:31:47.270Z,82.64
2023-11-20T01:34:15.086Z,82.39
2023-11-20T01:36:42.869Z,82.35
2023-11-20T01:39:11.028Z,82.84
2023-11-20T01:41:38.921Z,82.60
2023-11-20T01:44:07.428Z,82.57
2023-11-20T01:46:37.970Z,82.72
2023-11-20T01:49:06.808Z,82.27
2023-11-20T01:51:35.839Z,82.63
2023-11-20T01:54:05.692Z,82.57
2023-11-20T01:56:34.819Z,82.69
2023-11-20T01:59:07.027Z,82.34
2023-11-20T02:01:36.476Z,82.47
2023-11-20T02:04:05.970Z,82.37
2023-11-20T02:06:34.336Z,82.30
2023-11-20T02:09:02.381Z,82.41
2023-11-20T02:11:30.936Z,82.72
2023-11-20T02:13:58.788Z,82.54
2023-11-20T02:16:26.734Z,82.33
2023-11-20T02:18:55.894Z,82.54
2023-11-20T02:21:23.682Z,82.50
2023-11-20T02:23:51.694Z,82.87
2023-11-20T02:26:41.450Z,82.85
2023-11-20T02:29:22.635Z,82.57
2023-11-20T02:31:51.863Z,82.54
2023-11-20T02:34:21.236Z,82.75
2023-11-20T02:36:49.861Z,82.77
2023-11-20T02:39:17.761Z,82.46
2023-11-20T02:41:46.361Z,82.70
2023-11-20T02:44:14.375Z,82.59
2023-11-20T02:46:44.375Z,82.57
2023-11-20T02:49:14.648Z,82.86
2023-11-20T02:51:43.601Z,82.73
2023-11-20T02:54:14.551Z,82.93
2023-11-20T02:56:42.814Z,82.46
2023-11-20T02:59:10.726Z,82.64
2023-11-20T03:01:38.617Z,82.39
2023-11-20T03:04:07.193Z,82.43
2023-11-20T03:06:36.464Z,82.60
2023-11-20T03:09:04.891Z,82.81
2023-11-20T03:11:33.266Z,82.72
2023-11-20T03:14:01.707Z,82.65
2023-11-20T03:16:29.792Z,83.05
2023-11-20T03:18:59.094Z,82.69
2023-11-20T03:21:27.390Z,82.59
2023-11-20T03:23:56.825Z,82.61
2023-11-20T03:26:24.865Z,82.64
2023-11-20T03:28:52.953Z,82.67
2023-11-20T03:31:21.319Z,82.64
2023-11-20T03:33:49.572Z,82.76
2023-11-20T03:36:17.681Z,82.83
2023-11-20T03:38:45.698Z,82.72
2023-11-20T03:41:15.170Z,83.15
2023-11-20T03:43:43.047Z,82.76
2023-11-20T03:46:12.833Z,82.64
2023-11-20T03:48:40.790Z,82.94
2023-11-20T03:51:08.888Z,82.88
2023-11-20T03:53:36.918Z,82.85
2023-11-20T03:56:05.119Z,82.82
2023-11-20T03:58:34.426Z,82.90
2023-11-20T04:01:03.760Z,82.79
2023-11-20T04:03:32.076Z,82.61
2023-11-20T04:05:59.918Z,83.00
2023-11-20T04:08:27.797Z,83.24
2023-11-20T04:10:55.676Z,83.11
2023-11-20T04:13:23.619Z,83.07
2023-11-20T04:15:52.883Z,83.14
2023-11-20T04:18:21.280Z,83.17
2023-11-20T04:20:52.282Z,82.91
2023-11-20T04:23:20.598Z,83.34
2023-11-20T04:25:48.499Z,82.85
2023-11-20T04:28:16.493Z,83.00
2023-11-20T04:30:44.609Z,83.29
2023-11-20T04:33:13.896Z,83.15
2023-11-20T04:35:43.324Z,83.26
2023-11-20T04:38:11.348Z,83.05
2023-11-20T04:40:39.299Z,82.93
2023-11-20T04:43:07.134Z,82.72
2023-11-20T04:45:35.001Z,82.76
2023-11-20T04:48:04.929Z,82.95
2023-11-20T04:50:34.507Z,83.04
2023-11-20T04:53:02.486Z,83.35
2023-11-20T04:55:30.589Z,83.31
2023-11-20T04:57:59.437Z,83.21
2023-11-20T05:00:29.680Z,83.12
2023-11-20T05:02:57.816Z,83.11
2023-11-20T05:05:25.862Z,82.77
2023-11-20T05:07:55.750Z,83.17
2023-11-20T05:10:23.722Z,83.50
2023-11-20T05:12:52.267Z,83.35
2023-11-20T05:15:20.234Z,82.99
2023-11-20T05:17:48.769Z,83.39
2023-11-20T05:20:17.387Z,82.98
2023-11-20T05:22:47.636Z,83.18
2023-11-20T05:25:17.369Z,83.42
2023-11-20T05:27:45.729Z,83.31
2023-11-20T05:30:15.068Z,83.36
2023-11-20T05:32:42.986Z,83.40
2023-11-20T05:35:11.001Z,83.27
2023-11-20T05:37:38.995Z,83.32
2023-11-20T05:40:08.002Z,83.05
2023-11-20T05:42:37.432Z,83.39
2023-11-20T05:45:06.723Z,82.74
2023-11-20T05:47:34.814Z,83.07
2023-11-20T05:50:04.424Z,83.12
2023-11-20T05:52:33.725Z,83.62
2023-11-20T05:55:03.599Z,83.43
2023-11-20T05:57:32.127Z,83.15
2023-11-20T06:00:01.360Z,83.33
2023-11-20T06:02:29.343Z,83.52
2023-11-20T06:04:57.141Z,83.32
2023-11-20T06:07:25.233Z,83.25
2023-11-20T06:09:53.035Z,83.11
2023-11-20T06:12:21.044Z,83.57
2023-11-20T06:14:49.007Z,83.22
2023-11-20T06:17:18.923Z,83.52
2023-11-20T06:19:46.851Z,83.27
2023-11-20T06:22:15.249Z,83.24
2023-11-20T06:24:44.032Z,83.35
2023-11-20T06:27:12.015Z,83.47
2023-11-20T06:29:42.476Z,83.36
2023-11-20T06:32:11.538Z,83.63
2023-11-20T06:34:40.780Z,83.22
2023-11-20T06:37:08.983Z,83.40
2023-11-20T06:39:37.701Z,83.53
2023-11-20T06:42:06.197Z,83.38
2023-11-20T06:44:34.117Z,83.26
2023-11-20T06:47:02.150Z,83.63
2023-11-20T06:49:30.209Z,83.35
2023-11-20T06:51:59.431Z,83.29
2023-11-20T06:54:27.314Z,83.38
2023-11-20T06:56:55.758Z,83.55
2023-11-20T06:59:24.075Z,83.56
2023-11-20T07:01:51.974Z,83.23
2023-11-20T07:04:20.231Z,83.61
2023-11-20T07:06:48.670Z,83.72
2023-11-20T07:09:19.632Z,83.53
2023-11-20T07:11:47.937Z,83.77
2023-11-20T07:14:16.130Z,83.81
2023-11-20T07:16:44.146Z,83.50
2023-11-20T07:19:12.052Z,83.78
2023-11-20T07:21:40.988Z,83.32
2023-11-20T07:24:09.320Z,83.64
2023-11-20T07:26:39.676Z,83.59
2023-11-20T07:29:07.688Z,83.53
2023-11-20T07:31:37.986Z,83.43
2023-11-20T07:34:08.152Z,83.78
2023-11-20T07:36:36.091Z,83.08
2023-11-20T07:39:04.994Z,83.67
2023-11-20T07:41:32.972Z,83.87
2023-11-20T07:44:02.297Z,83.88
2023-11-20T07:46:30.698Z,83.66
2023-11-20T07:48:59.428Z,83.71
2023-11-20T07:51:29.233Z,83.47
2023-11-20T07:53:57.212Z,83.61
2023-11-20T07:56:25.164Z,83.93
2023-11-20T07:58:53.600Z,83.82
2023-11-20T08:01:24.254Z,83.45
2023-11-20T08:03:55.097Z,83.58
2023-11-20T08:06:24.081Z,84.07
2023-11-20T08:08:51.959Z,83.94
2023-11-20T08:11:19.773Z,83.48
2023-11-20T08:13:47.726Z,84.01
2023-11-20T08:16:15.787Z,83.88
2023-11-20T08:18:45.025Z,83.54
2023-11-20T08:21:12.906Z,83.64
2023-11-20T08:23:40.812Z,83.78
2023-11-20T08:26:08.723Z,83.66
2023-11-20T08:28:36.708Z,83.84
2023-11-20T08:31:07.296Z,83.78
2023-11-20T08:33:36.279Z,83.60
2023-11-20T08:36:06.837Z,84.19
2023-11-20T08:38:34.835Z,83.76
2023-11-20T08:41:03.616Z,84.07
2023-11-20T08:43:33.875Z,83.90
2023-11-20T08:46:09.155Z,83.88
2023-11-20T08:48:43.020Z,83.86
2023-11-20T08:51:12.416Z,83.72
2023-11-20T08:53:40.430Z,83.75
2023-11-20T08:56:11.281Z,84.11
2023-11-20T08:58:39.254Z,84.11
2023-11-20T09:01:07.321Z,84.42
2023-11-20T09:03:35.313Z,84.15
2023-11-20T09:06:05.381Z,84.23
2023-11-20T09:08:34.711Z,84.25
2023-11-20T09:11:03.497Z,84.15
2023-11-20T09:13:31.478Z,84.19
2023-11-20T09:16:00.145Z,84.34
2023-11-20T09:18:28.998Z,84.23
2023-11-20T09:21:00.175Z,83.88
2023-11-20T09:23:29.071Z,84.20
2023-11-20T09:25:58.946Z,83.92
2023-11-20T09:28:27.113Z,84.18
2023-11-20T09:30:55.809Z,83.91
2023-11-20T09:33:23.803Z,84.44
2023-11-20T09:35:51.773Z,84.15
2023-11-20T09:38:19.704Z,84.10
2023-11-20T09:40:47.853Z,83.99
2023-11-20T09:43:19.802Z,84.27
2023-11-20T09:45:53.373Z,84.13
2023-11-20T09:48:27.501Z,84.02
2023-11-20T09:51:07.253Z,84.11
2023-11-20T09:53:41.461Z,83.97
2023-11-20T09:56:12.335Z,84.20
2023-11-20T09:58:43.005Z,83.98
2023-11-20T10:01:15.308Z,84.15
2023-11-20T10:03:45.307Z,83.91
2023-11-20T10:06:16.487Z,84.15
2023-11-20T10:08:45.554Z,84.16
2023-11-20T10:11:17.390Z,84.11
2023-11-20T10:13:46.943Z,84.12
2023-11-20T10:16:19.413Z,84.06
2023-11-20T10:18:47.744Z,84.23
2023-11-20T10:21:15.835Z,84.04
2023-11-20T10:23:43.958Z,83.91
2023-11-20T10:26:12.303Z,84.49
2023-11-20T10:28:40.837Z,83.88
2023-11-20T10:31:10.586Z,84.08
2023-11-20T10:33:39.354Z,84.00
2023-11-20T10:36:15.159Z,83.91
2023-11-20T10:38:44.383Z,83.92
2023-11-20T10:41:13.139Z,83.91
2023-11-20T10:43:42.965Z,84.00
2023-11-20T10:46:12.686Z,84.12
2023-11-20T10:48:41.309Z,84.12
2023-11-20T10:51:10.914Z,83.98
2023-11-20T10:53:43.850Z,83.87
2023-11-20T10:56:13.931Z,84.03
2023-11-20T10:58:42.758Z,84.11
2023-11-20T11:01:12.282Z,84.24
2023-11-20T11:03:42.386Z,83.82
2023-11-20T11:06:13.049Z,84.10
2023-11-20T11:08:45.504Z,84.02
2023-11-20T11:11:15.868Z,83.81
2023-11-20T11:13:46.089Z,83.65
2023-11-20T11:16:26.271Z,83.79
2023-11-20T11:19:07.896Z,83.74
2023-11-20T11:21:45.673Z,83.66
2023-11-20T11:24:16.064Z,83.58
2023-11-20T11:26:53.667Z,83.78
2023-11-20T11:29:26.888Z,83.96
2023-11-20T11:32:21.759Z,83.29
2023-11-20T11:35:08.572Z,83.70
2023-11-20T11:37:47.273Z,83.61
2023-11-20T11:40:22.566Z,83.59
2023-11-20T11:42:57.621Z,83.83
2023-11-20T11:45:32.184Z,83.79
2023-11-20T11:48:02.894Z,83.43
2023-11-20T11:50:30.852Z,83.40
2023-11-20T11:52:59.885Z,83.61
2023-11-20T11:55:28.247Z,83.23
2023-11-20T11:58:04.134Z,83.25
2023-11-20T12:00:33.557Z,83.23
2023-11-20T12:03:10.193Z,83.43
2023-11-20T12:06:19.383Z,83.46
2023-11-20T12:08:49.680Z,83.41
2023-11-20T12:11:50.379Z,83.27
2023-11-20T12:14:18.353Z,83.30
2023-11-20T12:16:47.071Z,83.27
2023-11-20T12:19:17.866Z,83.21
2023-11-20T12:21:46.264Z,83.07
2023-11-20T12:24:14.697Z,83.24
2023-11-20T12:26:44.258Z,83.03
2023-11-20T12:29:12.811Z,82.84
2023-11-20T12:31:40.873Z,83.14
2023-11-20T12:34:09.437Z,83.11
2023-11-20T12:36:39.913Z,82.83
2023-11-20T12:39:09.888Z,83.10
2023-11-20T12:41:37.906Z,83.21
2023-11-20T12:44:06.224Z,82.82
2023-11-20T12:46:34.207Z,82.86
2023-11-20T12:49:03.476Z,82.86
2023-11-20T12:51:31.527Z,82.73
2023-11-20T12:54:02.288Z,82.83
2023-11-20T12:56:30.703Z,82.69
2023-11-20T12:58:59.052Z,83.04
2023-11-20T13:01:27.401Z,82.55
2023-11-20T13:03:55.802Z,82.97
2023-11-20T13:06:23.894Z,82.96
2023-11-20T13:08:51.799Z,82.96
2023-11-20T13:11:23.721Z,82.54
2023-11-20T13:13:52.570Z,82.61
2023-11-20T13:16:41.004Z,82.75
2023-11-20T13:19:09.246Z,82.52
2023-11-20T13:21:37.390Z,82.90
2023-11-20T13:24:07.333Z,82.32
2023-11-20T13:26:44.322Z,82.75
2023-11-20T13:29:12.548Z,82.89
2023-11-20T13:31:43.338Z,82.85
2023-11-20T13:34:11.441Z,82.37
2023-11-20T13:36:39.936Z,82.22
2023-11-20T13:39:11.612Z,82.65
2023-11-20T13:41:42.303Z,82.70
2023-11-20T13:44:10.654Z,82.14
2023-11-20T13:46:43.233Z,82.51
2023-11-20T13:49:12.132Z,82.21
2023-11-20T13:51:40.574Z,82.44
2023-11-20T13:54:10.819Z,82.81
2023-11-20T13:56:39.461Z,82.77
2023-11-20T13:59:10.583Z,82.31
2023-11-20T14:01:40.245Z,82.34
2023-11-20T14:04:11.014Z,82.26
2023-11-20T14:06:39.973Z,82.25
2023-11-20T14:09:08.087Z,82.69
2023-11-20T14:11:36.204Z,82.35
2023-11-20T14:14:04.489Z,82.13
2023-11-20T14:16:33.945Z,82.77
2023-11-20T14:19:02.049Z,82.40
2023-11-20T14:21:30.153Z,82.54
2023-11-20T14:23:58.031Z,82.47
2023-11-20T14:26:32.225Z,81.99
2023-11-20T14:29:02.870Z,82.35
2023-11-20T14:31:32.136Z,82.39
2023-11-20T14:34:01.626Z,82.17
2023-11-20T14:36:29.483Z,82.52
2023-11-20T14:38:59.592Z,82.32
2023-11-20T14:41:28.016Z,82.29
2023-11-20T14:43:55.912Z,82.51
2023-11-20T14:46:24.139Z,82.00
2023-11-20T14:48:52.162Z,82.31
2023-11-20T14:51:22.141Z,82.23
2023-11-20T14:53:52.495Z,82.49
2023-11-20T14:56:20.897Z,82.27
2023-11-20T14:58:48.809Z,82.45
2023-11-20T15:01:18.280Z,82.66
2023-11-20T15:03:46.446Z,82.44
2023-11-20T15:06:15.328Z,82.47
2023-11-20T15:08:44.987Z,82.34
2023-11-20T15:11:12.968Z,82.40
2023-11-20T15:13:41.289Z,82.34
2023-11-20T15:16:09.518Z,82.20
2023-11-20T15:18:37.996Z,82.31
2023-11-20T15:21:07.058Z,82.26
2023-11-20T15:23:42.539Z,82.23
2023-11-20T15:26:14.000Z,82.09
2023-11-20T15:28:41.986Z,82.63
2023-11-20T15:31:09.933Z,82.09
2023-11-20T15:33:43.540Z,82.34
2023-11-20T15:36:11.963Z,82.48
2023-11-20T15:38:39.840Z,82.08
2023-11-20T15:41:09.073Z,82.61
2023-11-20T15:43:38.519Z,82.63
2023-11-20T15:46:14.250Z,82.28
2023-11-20T15:48:42.376Z,82.51
2023-11-20T15:51:10.512Z,81.98
2023-11-20T15:53:38.506Z,82.48
2023-11-20T15:56:10.822Z,82.62
2023-11-20T15:58:41.444Z,82.66
2023-11-20T16:01:10.151Z,82.39
2023-11-20T16:03:38.787Z,82.74
2023-11-20T16:06:10.332Z,82.25
2023-11-20T16:08:41.416Z,82.18
2023-11-20T16:11:21.775Z,82.30
2023-11-20T16:13:51.774Z,82.36
2023-11-20T16:16:21.188Z,82.12
2023-11-20T16:18:55.052Z,82.49
2023-11-20T16:21:25.689Z,82.47
2023-11-20T16:23:59.758Z,82.09
2023-11-20T16:26:28.197Z,82.66
2023-11-20T16:29:13.988Z,82.49
2023-11-20T16:31:58.552Z,82.39
2023-11-20T16:34:34.838Z,82.73
2023-11-20T16:37:06.727Z,82.47
2023-11-20T16:39:34.663Z,82.69
2023-11-20T16:42:02.943Z,82.33
2023-11-20T16:44:32.524Z,82.29
2023-11-20T16:47:00.556Z,82.77
2023-11-20T16:49:29.113Z,82.70
2023-11-20T16:51:58.306Z,82.40
2023-11-20T16:54:27.191Z,82.46
2023-11-20T16:56:58.133Z,82.84
2023-11-20T16:59:27.311Z,82.82
2023-11-20T17:01:57.012Z,82.45
2023-11-20T17:04:25.638Z,82.48
2023-11-20T17:07:04.364Z,82.41
2023-11-20T17:09:32.521Z,82.89
2023-11-20T17:12:05.551Z,82.20
2023-11-20T17:14:34.433Z,82.56
2023-11-20T17:17:03.909Z,82.55
2023-11-20T17:19:31.915Z,82.57
2023-11-20T17:22:00.309Z,82.63
2023-11-20T17:24:30.634Z,82.50
2023-11-20T17:26:58.521Z,82.27
2023-11-20T17:29:26.631Z,82.33
2023-11-20T17:31:55.080Z,82.66
2023-11-20T17:34:24.683Z,82.56
2023-11-20T17:36:52.602Z,82.63
2023-11-20T17:39:23.884Z,82.48
2023-11-20T17:41:53.057Z,82.68
2023-11-20T17:44:20.881Z,82.66
2023-11-20T17:46:48.937Z,82.61
2023-11-20T17:49:16.872Z,82.34
2023-11-20T17:51:48.537Z,82.75
2023-11-20T17:54:16.528Z,82.53
2023-11-20T17:56:48.107Z,82.38
2023-11-20T17:59:18.373Z,82.46
2023-11-20T18:01:46.520Z,82.86
2023-11-20T18:04:14.946Z,82.64
2023-11-20T18:06:43.013Z,82.38
2023-11-20T18:09:14.291Z,82.69
2023-11-20T18:11:42.337Z,82.55
2023-11-20T18:14:10.475Z,82.90
2023-11-20T18:16:39.011Z,82.96
2023-11-20T18:19:07.543Z,82.90
2023-11-20T18:21:43.441Z,82.56
2023-11-20T18:24:18.024Z,82.85
2023-11-20T18:26:46.339Z,83.04
2023-11-20T18:29:16.245Z,82.55
2023-11-20T18:31:45.352Z,82.69
2023-11-20T18:34:13.581Z,82.88
2023-11-20T18:36:41.488Z,82.68
2023-11-20T18:39:09.679Z,82.99
2023-11-20T18:41:43.457Z,82.78
2023-11-20T18:44:14.260Z,82.69
2023-11-20T18:46:42.282Z,82.83
2023-11-20T18:49:10.746Z,82.62
2023-11-20T18:51:38.893Z,82.64
2023-11-20T18:54:08.081Z,82.68
2023-11-20T18:56:36.113Z,82.75
2023-11-20T18:59:05.463Z,83.03
2023-11-20T19:01:33.676Z,82.93
2023-11-20T19:04:03.635Z,82.69
2023-11-20T19:06:31.728Z,83.10
2023-11-20T19:08:59.996Z,82.93
2023-11-20T19:11:28.169Z,82.97
2023-11-20T19:13:56.178Z,82.56
2023-11-20T19:16:25.784Z,82.70
2023-11-20T19:18:54.042Z,82.74
2023-11-20T19:21:22.162Z,82.89
2023-11-20T19:23:50.115Z,83.19
2023-11-20T19:26:18.212Z,82.60
2023-11-20T19:28:46.205Z,82.93
2023-11-20T19:31:14.262Z,83.06
2023-11-20T19:33:45.857Z,82.96
2023-11-20T19:36:13.759Z,82.90
2023-11-20T19:38:42.214Z,82.68
2023-11-20T19:41:10.277Z,82.64
2023-11-20T19:43:38.361Z,83.11
2023-11-20T19:46:07.381Z,82.81
2023-11-20T19:48:35.464Z,83.26
2023-11-20T19:51:05.972Z,82.72
2023-11-20T19:53:35.071Z,82.81
2023-11-20T19:56:04.182Z,82.91
2023-11-20T19:58:32.124Z,83.35
2023-11-20T20:01:00.329Z,82.98
2023-11-20T20:03:29.177Z,83.14
2023-11-20T20:05:57.046Z,82.68
2023-11-20T20:08:26.512Z,83.31
2023-11-20T20:10:54.525Z,83.20
2023-11-20T20:13:25.396Z,83.10
2023-11-20T20:15:53.523Z,82.98
2023-11-20T20:18:21.693Z,83.07
2023-11-20T20:20:49.815Z,83.14
2023-11-20T20:23:20.605Z,82.96
2023-11-20T20:25:50.031Z,83.05
2023-11-20T20:28:18.107Z,83.32
2023-11-20T20:30:46.478Z,83.23
2023-11-20T20:33:14.817Z,83.41
2023-11-20T20:35:42.917Z,82.96
2023-11-20T20:38:11.282Z,83.00
2023-11-20T20:40:39.473Z,82.96
2023-11-20T20:43:08.890Z,82.83
2023-11-20T20:45:38.019Z,83.32
2023-11-20T20:48:06.837Z,83.48
2023-11-20T20:50:34.959Z,83.35
2023-11-20T20:53:03.597Z,83.37
2023-11-20T20:55:31.797Z,83.05
2023-11-20T20:58:00.422Z,83.02
2023-11-20T21:00:32.553Z,83.05
2023-11-20T21:03:00.549Z,83.45
2023-11-20T21:05:30.652Z,83.61
2023-11-20T21:07:58.868Z,83.11
2023-11-20T21:10:27.191Z,83.14
2023-11-20T21:12:55.206Z,83.42
2023-11-20T21:15:25.090Z,83.14
2023-11-20T21:17:54.524Z,83.12
2023-11-20T21:20:22.507Z,83.55
2023-11-20T21:22:50.705Z,83.34
2023-11-20T21:25:21.285Z,83.45
2023-11-20T21:27:49.430Z,83.49
2023-11-20T21:30:18.242Z,83.30
2023-11-20T21:32:46.161Z,83.08
2023-11-20T21:35:15.609Z,83.34
2023-11-20T21:37:43.788Z,83.61
2023-11-20T21:40:12.783Z,83.49
2023-11-20T21:42:41.043Z,83.65
2023-11-20T21:45:09.637Z,83.33
2023-11-20T21:47:38.499Z,83.45
2023-11-20T21:50:09.449Z,83.68
2023-11-20T21:52:39.961Z,83.09
2023-11-20T21:55:09.457Z,83.34
2023-11-20T21:57:38.269Z,83.24
2023-11-20T22:00:08.123Z,83.62
2023-11-20T22:02:36.211Z,83.72
2023-11-20T22:05:06.070Z,83.60
2023-11-20T22:07:34.161Z,83.19
2023-11-20T22:10:03.546Z,83.73
2023-11-20T22:12:31.541Z,83.43
2023-11-20T22:15:00.215Z,83.52
2023-11-20T22:17:28.986Z,83.39
2023-11-20T22:19:57.303Z,83.48
2023-11-20T22:22:25.376Z,83.64
2023-11-20T22:24:53.532Z,83.43
2023-11-20T22:27:22.843Z,83.50
2023-11-20T22:29:51.019Z,83.77
2023-11-20T22:32:19.392Z,83.53
2023-11-20T22:34:55.135Z,83.53
2023-11-20T22:37:30.723Z,83.88
2023-11-20T22:39:58.661Z,83.74
2023-11-20T22:42:28.743Z,83.89
2023-11-20T22:44:57.788Z,83.85
2023-11-20T22:47:25.665Z,83.42
2023-11-20T22:49:54.221Z,83.53
2023-11-20T22:52:23.721Z,83.53
2023-11-20T22:54:51.595Z,83.99
2023-11-20T22:57:19.738Z,83.55
2023-11-20T22:59:49.752Z,83.97
2023-11-20T23:02:18.016Z,83.65
2023-11-20T23:04:46.160Z,83.84
2023-11-20T23:07:14.121Z,83.62
2023-11-20T23:09:42.086Z,84.14
2023-11-20T23:12:10.014Z,83.60
2023-11-20T23:14:37.837Z,84.03
2023-11-20T23:17:07.285Z,83.73
2023-11-20T23:19:35.613Z,84.17
2023-11-20T23:22:03.865Z,84.05
2023-11-20T23:24:31.744Z,83.75
2023-11-20T23:26:59.695Z,83.56
2023-11-20T23:29:27.676Z,84.08
2023-11-20T23:31:55.681Z,84.27
2023-11-20T23:34:25.918Z,83.84
2023-11-20T23:36:53.810Z,83.83
2023-11-20T23:39:22.299Z,84.32
2023-11-20T23:41:50.924Z,83.90
2023-11-20T23:44:19.055Z,84.01
2023-11-20T23:46:48.228Z,84.10
2023-11-20T23:49:16.193Z,83.65
2023-11-20T23:51:45.753Z,83.99
2023-11-20T23:54:13.646Z,83.82
2023-11-20T23:56:41.532Z,83.83
2023-11-20T23:59:10.723Z,83.84
